sensor_id;sensor_type;location;lat;lon;timestamp;pressure;altitude;pressure_sealevel;temperature;humidity
50057;BME280;36875;49.468;11.200;2024-02-21T00:00:47;98813.44;;;21.24;40.79
50057;BME280;36875;49.468;11.200;2024-02-21T00:03:12;98811.22;;;21.26;40.64
50057;BME280;36875;49.468;11.200;2024-02-21T00:05:39;98808.84;;;21.19;40.85
50057;BME280;36875;49.468;11.200;2024-02-21T00:08:05;98798.50;;;21.16;40.64
50057;BME280;36875;49.468;11.200;2024-02-21T00:10:30;98792.09;;;21.07;40.89
50057;BME280;36875;49.468;11.200;2024-02-21T00:13:00;98803.16;;;21.15;40.90
50057;BME280;36875;49.468;11.200;2024-02-21T00:15:26;98792.09;;;21.07;40.82
50057;BME280;36875;49.468;11.200;2024-02-21T00:17:51;98787.47;;;21.02;41.07
50057;BME280;36875;49.468;11.200;2024-02-21T00:20:17;98791.06;;;21.03;40.85
50057;BME280;36875;49.468;11.200;2024-02-21T00:22:44;98786.59;;;21.07;40.97
50057;BME280;36875;49.468;11.200;2024-02-21T00:25:09;98773.56;;;20.98;40.77
50057;BME280;36875;49.468;11.200;2024-02-21T00:27:35;98785.59;;;21.03;40.62
50057;BME280;36875;49.468;11.200;2024-02-21T00:30:01;98778.84;;;20.95;40.92
50057;BME280;36875;49.468;11.200;2024-02-21T00:32:26;98783.50;;;20.94;41.04
50057;BME280;36875;49.468;11.200;2024-02-21T00:34:52;98776.72;;;20.92;41.04
50057;BME280;36875;49.468;11.200;2024-02-21T00:37:17;98770.72;;;20.90;41.03
50057;BME280;36875;49.468;11.200;2024-02-21T00:39:44;98764.41;;;20.89;41.07
50057;BME280;36875;49.468;11.200;2024-02-21T00:42:09;98760.66;;;20.85;41.14
50057;BME280;36875;49.468;11.200;2024-02-21T00:44:35;98768.34;;;20.83;41.04
50057;BME280;36875;49.468;11.200;2024-02-21T00:47:00;98765.09;;;20.81;41.16
50057;BME280;36875;49.468;11.200;2024-02-21T00:49:26;98755.25;;;20.80;41.11
50057;BME280;36875;49.468;11.200;2024-02-21T00:51:51;98756.38;;;20.79;40.97
50057;BME280;36875;49.468;11.200;2024-02-21T00:54:17;98754.72;;;20.78;41.16
50057;BME280;36875;49.468;11.200;2024-02-21T00:56:44;98751.47;;;20.76;41.15
50057;BME280;36875;49.468;11.200;2024-02-21T00:59:09;98740.63;;;20.71;40.96
50057;BME280;36875;49.468;11.200;2024-02-21T01:01:35;98739.00;;;20.70;41.22
50057;BME280;36875;49.468;11.200;2024-02-21T01:04:00;98735.81;;;20.63;41.37
50057;BME280;36875;49.468;11.200;2024-02-21T01:06:26;98748.06;;;20.65;41.45
50057;BME280;36875;49.468;11.200;2024-02-21T01:08:51;98737.13;;;20.65;41.30
50057;BME280;36875;49.468;11.200;2024-02-21T01:11:17;98735.31;;;20.60;41.48
50057;BME280;36875;49.468;11.200;2024-02-21T01:13:44;98736.91;;;20.62;41.26
50057;BME280;36875;49.468;11.200;2024-02-21T01:16:09;98719.00;;;20.50;41.27
50057;BME280;36875;49.468;11.200;2024-02-21T01:18:37;98733.41;;;20.56;41.44
50057;BME280;36875;49.468;11.200;2024-02-21T01:21:04;98728.22;;;20.54;41.25
50057;BME280;36875;49.468;11.200;2024-02-21T01:23:32;98724.69;;;20.54;41.16
50057;BME280;36875;49.468;11.200;2024-02-21T01:25:57;98727.19;;;20.50;41.27
50057;BME280;36875;49.468;11.200;2024-02-21T01:28:23;98699.34;;;20.29;41.53
50057;BME280;36875;49.468;11.200;2024-02-21T01:30:50;98728.91;;;20.46;41.42
50057;BME280;36875;49.468;11.200;2024-02-21T01:33:15;98724.53;;;20.45;41.62
50057;BME280;36875;49.468;11.200;2024-02-21T01:35:41;98721.28;;;20.43;41.63
50057;BME280;36875;49.468;11.200;2024-02-21T01:38:06;98719.66;;;20.42;41.63
50057;BME280;36875;49.468;11.200;2024-02-21T01:40:32;98716.38;;;20.40;41.44
50057;BME280;36875;49.468;11.200;2024-02-21T01:42:57;98704.66;;;20.39;41.42
50057;BME280;36875;49.468;11.200;2024-02-21T01:45:23;98710.41;;;20.38;41.53
50057;BME280;36875;49.468;11.200;2024-02-21T01:47:50;98707.75;;;20.33;41.50
50057;BME280;36875;49.468;11.200;2024-02-21T01:50:16;98700.66;;;20.32;41.66
50057;BME280;36875;49.468;11.200;2024-02-21T01:52:43;98701.47;;;20.32;41.75
50057;BME280;36875;49.468;11.200;2024-02-21T01:55:09;98694.44;;;20.26;41.72
50057;BME280;36875;49.468;11.200;2024-02-21T01:57:36;98689.78;;;20.27;41.61
50057;BME280;36875;49.468;11.200;2024-02-21T02:00:02;98690.91;;;20.26;41.73
50057;BME280;36875;49.468;11.200;2024-02-21T02:02:28;98683.81;;;20.25;41.82
50057;BME280;36875;49.468;11.200;2024-02-21T02:04:56;98674.63;;;20.15;41.88
50057;BME280;36875;49.468;11.200;2024-02-21T02:07:21;98679.53;;;20.18;41.56
50057;BME280;36875;49.468;11.200;2024-02-21T02:09:47;98685.00;;;20.18;41.75
50057;BME280;36875;49.468;11.200;2024-02-21T02:12:12;98685.28;;;20.17;41.75
50057;BME280;36875;49.468;11.200;2024-02-21T02:14:38;98685.56;;;20.15;41.82
50057;BME280;36875;49.468;11.200;2024-02-21T02:17:03;98681.75;;;20.16;41.68
50057;BME280;36875;49.468;11.200;2024-02-21T02:19:29;98676.84;;;20.13;42.07
50057;BME280;36875;49.468;11.200;2024-02-21T02:22:03;98677.94;;;20.12;42.01
50057;BME280;36875;49.468;11.200;2024-02-21T02:24:32;98667.97;;;20.02;41.94
50057;BME280;36875;49.468;11.200;2024-02-21T02:26:58;98680.16;;;20.10;41.75
50057;BME280;36875;49.468;11.200;2024-02-21T02:29:23;98667.63;;;20.09;41.93
50057;BME280;36875;49.468;11.200;2024-02-21T02:31:49;98672.34;;;20.03;41.87
50057;BME280;36875;49.468;11.200;2024-02-21T02:34:14;98664.94;;;20.04;41.62
50057;BME280;36875;49.468;11.200;2024-02-21T02:36:40;98658.97;;;20.02;41.87
50057;BME280;36875;49.468;11.200;2024-02-21T02:39:05;98653.06;;;19.95;41.64
50057;BME280;36875;49.468;11.200;2024-02-21T02:41:34;98648.63;;;19.99;42.02
50057;BME280;36875;49.468;11.200;2024-02-21T02:44:00;98657.34;;;20.01;41.99
50057;BME280;36875;49.468;11.200;2024-02-21T02:46:25;98653.56;;;19.97;41.67
50057;BME280;36875;49.468;11.200;2024-02-21T02:48:51;98641.84;;;19.96;42.00
50057;BME280;36875;49.468;11.200;2024-02-21T02:51:16;98638.28;;;19.96;42.05
50057;BME280;36875;49.468;11.200;2024-02-21T02:53:42;98632.34;;;19.89;42.15
50057;BME280;36875;49.468;11.200;2024-02-21T02:56:07;98635.31;;;19.92;41.85
50057;BME280;36875;49.468;11.200;2024-02-21T02:58:40;98622.25;;;19.89;42.02
50057;BME280;36875;49.468;11.200;2024-02-21T03:01:06;98626.88;;;19.89;41.65
50057;BME280;36875;49.468;11.200;2024-02-21T03:03:32;98624.16;;;19.89;41.88
50057;BME280;36875;49.468;11.200;2024-02-21T03:05:57;98619.59;;;19.84;41.99
50057;BME280;36875;49.468;11.200;2024-02-21T03:08:23;98618.78;;;19.83;42.06
50057;BME280;36875;49.468;11.200;2024-02-21T03:10:48;98611.16;;;19.80;41.83
50057;BME280;36875;49.468;11.200;2024-02-21T03:13:14;98612.84;;;19.76;42.19
50057;BME280;36875;49.468;11.200;2024-02-21T03:15:41;98619.13;;;19.77;41.93
50057;BME280;36875;49.468;11.200;2024-02-21T03:18:06;98612.09;;;19.71;42.06
50057;BME280;36875;49.468;11.200;2024-02-21T03:20:32;98594.94;;;19.65;42.07
50057;BME280;36875;49.468;11.200;2024-02-21T03:22:57;98621.63;;;19.73;42.23
50057;BME280;36875;49.468;11.200;2024-02-21T03:25:23;98605.56;;;19.67;42.02
50057;BME280;36875;49.468;11.200;2024-02-21T03:27:48;98618.09;;;19.73;41.92
50057;BME280;36875;49.468;11.200;2024-02-21T03:30:14;98614.53;;;19.72;42.23
50057;BME280;36875;49.468;11.200;2024-02-21T03:32:41;98617.03;;;19.69;42.29
50057;BME280;36875;49.468;11.200;2024-02-21T03:35:07;98614.59;;;19.67;42.50
50057;BME280;36875;49.468;11.200;2024-02-21T03:37:32;98611.00;;;19.67;42.08
50057;BME280;36875;49.468;11.200;2024-02-21T03:39:58;98589.38;;;19.51;42.26
50057;BME280;36875;49.468;11.200;2024-02-21T03:42:23;98605.03;;;19.64;42.06
50057;BME280;36875;49.468;11.200;2024-02-21T03:44:49;98606.44;;;19.62;42.31
50057;BME280;36875;49.468;11.200;2024-02-21T03:47:14;98599.34;;;19.61;42.16
50057;BME280;36875;49.468;11.200;2024-02-21T03:49:41;98606.44;;;19.62;42.10
50057;BME280;36875;49.468;11.200;2024-02-21T03:52:06;98601.03;;;19.57;42.35
50057;BME280;36875;49.468;11.200;2024-02-21T03:54:33;98600.75;;;19.58;42.28
50057;BME280;36875;49.468;11.200;2024-02-21T03:56:58;98599.94;;;19.58;42.21
50057;BME280;36875;49.468;11.200;2024-02-21T03:59:24;98602.97;;;19.56;42.19
50057;BME280;36875;49.468;11.200;2024-02-21T04:01:51;98595.13;;;19.50;42.15
50057;BME280;36875;49.468;11.200;2024-02-21T04:04:16;98594.25;;;19.54;42.38
50057;BME280;36875;49.468;11.200;2024-02-21T04:06:47;98582.59;;;19.49;42.37
50057;BME280;36875;49.468;11.200;2024-02-21T04:09:13;98585.31;;;19.49;42.21
50057;BME280;36875;49.468;11.200;2024-02-21T04:11:39;98580.44;;;19.45;42.53
50057;BME280;36875;49.468;11.200;2024-02-21T04:14:04;98578.22;;;19.48;42.50
50057;BME280;36875;49.468;11.200;2024-02-21T04:16:29;98575.78;;;19.46;42.48
50057;BME280;36875;49.468;11.200;2024-02-21T04:18:57;98572.53;;;19.44;42.49
50057;BME280;36875;49.468;11.200;2024-02-21T04:21:22;98575.25;;;19.44;42.40
50057;BME280;36875;49.468;11.200;2024-02-21T04:23:49;98568.75;;;19.40;42.36
50057;BME280;36875;49.468;11.200;2024-02-21T04:26:14;98562.22;;;19.41;42.58
50057;BME280;36875;49.468;11.200;2024-02-21T04:28:40;98546.47;;;19.33;42.36
50057;BME280;36875;49.468;11.200;2024-02-21T04:31:05;98561.59;;;19.44;43.00
50057;BME280;36875;49.468;11.200;2024-02-21T04:33:31;98550.00;;;19.33;42.57
50057;BME280;36875;49.468;11.200;2024-02-21T04:35:56;98560.28;;;19.41;42.78
50057;BME280;36875;49.468;11.200;2024-02-21T04:38:24;98565.09;;;19.50;42.47
50057;BME280;36875;49.468;11.200;2024-02-21T04:40:50;98563.94;;;19.56;42.13
50057;BME280;36875;49.468;11.200;2024-02-21T04:43:16;98560.69;;;19.54;42.23
50057;BME280;36875;49.468;11.200;2024-02-21T04:45:41;98556.28;;;19.58;42.49
50057;BME280;36875;49.468;11.200;2024-02-21T04:48:07;98548.31;;;19.61;42.31
50057;BME280;36875;49.468;11.200;2024-02-21T04:50:32;98551.38;;;19.55;42.28
50057;BME280;36875;49.468;11.200;2024-02-21T04:52:58;98548.41;;;19.51;42.05
50057;BME280;36875;49.468;11.200;2024-02-21T04:55:23;98544.88;;;19.51;41.76
50057;BME280;36875;49.468;11.200;2024-02-21T04:57:50;98550.34;;;19.51;41.47
50057;BME280;36875;49.468;11.200;2024-02-21T05:00:16;98555.22;;;19.54;41.57
50057;BME280;36875;49.468;11.200;2024-02-21T05:02:42;98552.50;;;19.54;41.69
50057;BME280;36875;49.468;11.200;2024-02-21T05:05:07;98549.78;;;19.54;41.46
50057;BME280;36875;49.468;11.200;2024-02-21T05:07:35;98548.59;;;19.60;41.88
50057;BME280;36875;49.468;11.200;2024-02-21T05:10:00;98533.06;;;19.79;41.22
50057;BME280;36875;49.468;11.200;2024-02-21T05:12:26;98533.66;;;19.95;41.13
50057;BME280;36875;49.468;11.200;2024-02-21T05:14:53;98521.81;;;20.19;40.60
50057;BME280;36875;49.468;11.200;2024-02-21T05:17:18;98514.78;;;20.32;40.38
50057;BME280;36875;49.468;11.200;2024-02-21T05:19:44;98508.56;;;20.45;39.97
50057;BME280;36875;49.468;11.200;2024-02-21T05:22:09;98515.97;;;20.58;40.02
50057;BME280;36875;49.468;11.200;2024-02-21T05:24:35;98513.31;;;20.72;39.86
50057;BME280;36875;49.468;11.200;2024-02-21T05:27:01;98506.06;;;20.95;39.20
50057;BME280;36875;49.468;11.200;2024-02-21T05:29:27;98502.59;;;21.04;39.07
50057;BME280;36875;49.468;11.200;2024-02-21T05:31:57;98509.59;;;21.24;38.91
50057;BME280;36875;49.468;11.200;2024-02-21T05:34:23;98508.66;;;21.28;39.29
50057;BME280;36875;49.468;11.200;2024-02-21T05:36:48;98502.59;;;21.31;39.27
50057;BME280;36875;49.468;11.200;2024-02-21T05:39:14;98506.22;;;21.68;38.60
50057;BME280;36875;49.468;11.200;2024-02-21T05:41:40;98503.69;;;21.94;38.12
50057;BME280;36875;49.468;11.200;2024-02-21T05:44:05;98499.16;;;22.12;38.11
50057;BME280;36875;49.468;11.200;2024-02-21T05:46:31;98491.91;;;22.08;37.99
50057;BME280;36875;49.468;11.200;2024-02-21T05:48:58;98490.94;;;22.26;37.77
50057;BME280;36875;49.468;11.200;2024-02-21T05:51:24;98478.53;;;21.92;38.33
50057;BME280;36875;49.468;11.200;2024-02-21T05:53:49;98502.97;;;22.25;38.01
50057;BME280;36875;49.468;11.200;2024-02-21T05:56:15;98494.06;;;22.20;38.00
50057;BME280;36875;49.468;11.200;2024-02-21T05:58:40;98495.88;;;22.24;38.22
50057;BME280;36875;49.468;11.200;2024-02-21T06:01:06;98491.78;;;22.36;38.12
50057;BME280;36875;49.468;11.200;2024-02-21T06:03:33;98471.34;;;22.19;38.14
50057;BME280;36875;49.468;11.200;2024-02-21T06:06:00;98491.00;;;22.35;37.94
50057;BME280;36875;49.468;11.200;2024-02-21T06:08:30;98491.00;;;22.35;37.95
50057;BME280;36875;49.468;11.200;2024-02-21T06:10:55;98490.13;;;22.26;38.21
50057;BME280;36875;49.468;11.200;2024-02-21T06:13:21;98488.38;;;22.30;37.97
50057;BME280;36875;49.468;11.200;2024-02-21T06:15:47;98482.47;;;22.23;38.13
50057;BME280;36875;49.468;11.200;2024-02-21T06:18:12;98493.06;;;22.16;38.29
50057;BME280;36875;49.468;11.200;2024-02-21T06:20:38;98497.06;;;22.09;38.31
50057;BME280;36875;49.468;11.200;2024-02-21T06:23:07;98492.88;;;22.12;38.25
50057;BME280;36875;49.468;11.200;2024-02-21T06:25:33;98492.09;;;22.11;38.30
50057;BME280;36875;49.468;11.200;2024-02-21T06:27:58;98488.84;;;22.09;37.93
50057;BME280;36875;49.468;11.200;2024-02-21T06:30:24;98496.72;;;22.11;38.06
50057;BME280;36875;49.468;11.200;2024-02-21T06:32:49;98492.81;;;22.03;38.19
50057;BME280;36875;49.468;11.200;2024-02-21T06:35:15;98497.59;;;21.98;38.60
50057;BME280;36875;49.468;11.200;2024-02-21T06:37:40;98502.78;;;21.99;38.47
50057;BME280;36875;49.468;11.200;2024-02-21T06:40:08;98509.94;;;21.86;38.95
50057;BME280;36875;49.468;11.200;2024-02-21T06:42:33;98516.91;;;21.92;38.74
50057;BME280;36875;49.468;11.200;2024-02-21T06:44:59;98518.56;;;21.80;38.70
50057;BME280;36875;49.468;11.200;2024-02-21T06:47:24;98506.00;;;21.79;38.46
50057;BME280;36875;49.468;11.200;2024-02-21T06:49:50;98508.22;;;21.77;38.75
50057;BME280;36875;49.468;11.200;2024-02-21T06:52:17;98505.25;;;21.87;38.69
50057;BME280;36875;49.468;11.200;2024-02-21T06:54:43;98491.13;;;21.57;39.01
50057;BME280;36875;49.468;11.200;2024-02-21T06:57:09;98515.22;;;21.83;39.20
50057;BME280;36875;49.468;11.200;2024-02-21T06:59:35;98513.53;;;21.73;39.44
50057;BME280;36875;49.468;11.200;2024-02-21T07:02:00;98521.44;;;21.74;39.39
50057;BME280;36875;49.468;11.200;2024-02-21T07:04:26;98516.06;;;21.69;39.71
50057;BME280;36875;49.468;11.200;2024-02-21T07:06:52;98500.47;;;21.56;39.80
50057;BME280;36875;49.468;11.200;2024-02-21T07:09:18;98507.47;;;21.48;39.79
50057;BME280;36875;49.468;11.200;2024-02-21T07:11:43;98504.22;;;21.60;40.07
50057;BME280;36875;49.468;11.200;2024-02-21T07:14:10;98487.13;;;21.63;39.94
50057;BME280;36875;49.468;11.200;2024-02-21T07:16:35;98494.25;;;21.64;40.02
50057;BME280;36875;49.468;11.200;2024-02-21T07:19:01;98483.22;;;21.55;40.27
50057;BME280;36875;49.468;11.200;2024-02-21T07:21:27;98487.59;;;21.56;40.44
50057;BME280;36875;49.468;11.200;2024-02-21T07:23:53;98490.00;;;21.44;40.44
50057;BME280;36875;49.468;11.200;2024-02-21T07:26:18;98492.03;;;21.38;40.46
50057;BME280;36875;49.468;11.200;2024-02-21T07:28:44;98496.22;;;21.36;39.98
50057;BME280;36875;49.468;11.200;2024-02-21T07:31:11;98494.47;;;21.26;39.31
50057;BME280;36875;49.468;11.200;2024-02-21T07:33:36;98503.72;;;21.30;38.95
50057;BME280;36875;49.468;11.200;2024-02-21T07:36:06;98496.63;;;21.29;38.60
50057;BME280;36875;49.468;11.200;2024-02-21T07:38:31;98495.91;;;21.24;39.03
50057;BME280;36875;49.468;11.200;2024-02-21T07:40:57;98498.94;;;21.22;39.19
50057;BME280;36875;49.468;11.200;2024-02-21T07:43:22;98493.97;;;21.24;39.24
50057;BME280;36875;49.468;11.200;2024-02-21T07:45:48;98496.22;;;21.22;39.26
50057;BME280;36875;49.468;11.200;2024-02-21T07:48:14;98484.75;;;21.20;39.40
50057;BME280;36875;49.468;11.200;2024-02-21T07:50:40;98488.59;;;21.19;39.62
50057;BME280;36875;49.468;11.200;2024-02-21T07:53:05;98491.03;;;21.21;39.40
50057;BME280;36875;49.468;11.200;2024-02-21T07:55:31;98483.13;;;21.19;39.46
50057;BME280;36875;49.468;11.200;2024-02-21T07:57:57;98480.09;;;21.21;39.39
50057;BME280;36875;49.468;11.200;2024-02-21T08:00:22;98469.22;;;21.15;39.60
50057;BME280;36875;49.468;11.200;2024-02-21T08:02:48;98478.88;;;21.13;39.55
50057;BME280;36875;49.468;11.200;2024-02-21T08:05:16;98458.41;;;20.96;39.93
50057;BME280;36875;49.468;11.200;2024-02-21T08:07:41;98474.72;;;21.02;39.90
50057;BME280;36875;49.468;11.200;2024-02-21T08:10:07;98477.75;;;21.00;39.84
50057;BME280;36875;49.468;11.200;2024-02-21T08:12:36;98471.50;;;20.99;39.98
50057;BME280;36875;49.468;11.200;2024-02-21T08:15:04;98459.53;;;20.95;39.77
50057;BME280;36875;49.468;11.200;2024-02-21T08:17:29;98453.03;;;20.91;39.93
50057;BME280;36875;49.468;11.200;2024-02-21T08:19:57;98447.06;;;20.89;39.91
50057;BME280;36875;49.468;11.200;2024-02-21T08:22:24;98434.19;;;20.76;40.10
50057;BME280;36875;49.468;11.200;2024-02-21T08:24:50;98441.09;;;20.87;40.17
50057;BME280;36875;49.468;11.200;2024-02-21T08:27:15;98434.50;;;20.88;40.22
50057;BME280;36875;49.468;11.200;2024-02-21T08:29:41;98440.28;;;20.87;39.93
50057;BME280;36875;49.468;11.200;2024-02-21T08:32:06;98431.06;;;20.83;40.18
50057;BME280;36875;49.468;11.200;2024-02-21T08:34:32;98433.59;;;20.79;40.00
50057;BME280;36875;49.468;11.200;2024-02-21T08:36:59;98429.53;;;20.76;40.02
50057;BME280;36875;49.468;11.200;2024-02-21T08:39:26;98425.19;;;20.75;40.49
50057;BME280;36875;49.468;11.200;2024-02-21T08:41:53;98427.91;;;20.75;40.18
50057;BME280;36875;49.468;11.200;2024-02-21T08:44:19;98421.25;;;20.68;40.29
50057;BME280;36875;49.468;11.200;2024-02-21T08:46:44;98432.06;;;20.73;40.19
50057;BME280;36875;49.468;11.200;2024-02-21T08:49:12;98434.91;;;20.68;40.60
50057;BME280;36875;49.468;11.200;2024-02-21T08:51:39;98431.84;;;20.69;40.30
50057;BME280;36875;49.468;11.200;2024-02-21T08:54:04;98416.81;;;20.53;40.33
50057;BME280;36875;49.468;11.200;2024-02-21T08:56:31;98431.44;;;20.62;40.31
50057;BME280;36875;49.468;11.200;2024-02-21T08:58:57;98418.44;;;20.54;40.60
50057;BME280;36875;49.468;11.200;2024-02-21T09:01:23;98419.25;;;20.54;40.65
50057;BME280;36875;49.468;11.200;2024-02-21T09:03:48;98425.72;;;20.58;40.66
50057;BME280;36875;49.468;11.200;2024-02-21T09:06:19;98427.97;;;20.56;40.73
50057;BME280;36875;49.468;11.200;2024-02-21T09:08:45;98422.81;;;20.55;40.62
50057;BME280;36875;49.468;11.200;2024-02-21T09:11:10;98425.44;;;20.60;40.78
50057;BME280;36875;49.468;11.200;2024-02-21T09:13:37;98419.97;;;20.60;40.60
50057;BME280;36875;49.468;11.200;2024-02-21T09:16:03;98421.69;;;20.56;40.66
50057;BME280;36875;49.468;11.200;2024-02-21T09:18:28;98430.19;;;20.54;40.70
50057;BME280;36875;49.468;11.200;2024-02-21T09:20:55;98411.13;;;20.49;40.74
50057;BME280;36875;49.468;11.200;2024-02-21T09:23:20;98422.28;;;20.53;40.74
50057;BME280;36875;49.468;11.200;2024-02-21T09:25:48;98417.66;;;20.53;40.68
50057;BME280;36875;49.468;11.200;2024-02-21T09:28:14;98406.81;;;20.48;40.82
50057;BME280;36875;49.468;11.200;2024-02-21T09:30:41;98414.19;;;20.48;40.94
50057;BME280;36875;49.468;11.200;2024-02-21T09:33:07;98405.66;;;20.49;40.85
50057;BME280;36875;49.468;11.200;2024-02-21T09:35:32;98405.06;;;20.52;40.98
50057;BME280;36875;49.468;11.200;2024-02-21T09:37:59;98410.25;;;20.54;40.73
50057;BME280;36875;49.468;11.200;2024-02-21T09:40:25;98395.38;;;20.46;40.86
50057;BME280;36875;49.468;11.200;2024-02-21T09:42:58;98401.25;;;20.53;40.77
50057;BME280;36875;49.468;11.200;2024-02-21T09:45:27;98406.72;;;20.53;40.97
50057;BME280;36875;49.468;11.200;2024-02-21T09:48:07;98407.22;;;20.55;40.97
50057;BME280;36875;49.468;11.200;2024-02-21T09:50:38;98399.81;;;20.56;40.60
50057;BME280;36875;49.468;11.200;2024-02-21T09:53:06;98402.56;;;20.56;40.82
50057;BME280;36875;49.468;11.200;2024-02-21T09:55:33;98392.53;;;20.51;40.78
50057;BME280;36875;49.468;11.200;2024-02-21T09:58:01;98390.50;;;20.57;40.55
50057;BME280;36875;49.468;11.200;2024-02-21T10:00:27;98382.59;;;20.55;40.68
50057;BME280;36875;49.468;11.200;2024-02-21T10:02:53;98376.94;;;20.52;40.79
50057;BME280;36875;49.468;11.200;2024-02-21T10:05:20;98378.25;;;20.54;40.90
50057;BME280;36875;49.468;11.200;2024-02-21T10:07:46;98378.25;;;20.54;40.95
50057;BME280;36875;49.468;11.200;2024-02-21T10:10:13;98367.81;;;20.56;40.71
50057;BME280;36875;49.468;11.200;2024-02-21T10:12:48;98366.19;;;20.55;41.11
50057;BME280;36875;49.468;11.200;2024-02-21T10:15:19;98363.97;;;20.57;41.00
50057;BME280;36875;49.468;11.200;2024-02-21T10:17:45;98340.25;;;20.53;40.96
50057;BME280;36875;49.468;11.200;2024-02-21T10:20:12;98343.69;;;20.58;41.00
50057;BME280;36875;49.468;11.200;2024-02-21T10:22:39;98345.34;;;20.59;40.87
50057;BME280;36875;49.468;11.200;2024-02-21T10:25:08;98335.63;;;20.53;41.26
50057;BME280;36875;49.468;11.200;2024-02-21T10:27:33;98337.72;;;20.56;41.01
50057;BME280;36875;49.468;11.200;2024-02-21T10:29:59;98346.06;;;20.51;40.96
50057;BME280;36875;49.468;11.200;2024-02-21T10:32:24;98346.97;;;20.47;41.18
50057;BME280;36875;49.468;11.200;2024-02-21T10:35:01;98337.31;;;20.49;42.84
50057;BME280;36875;49.468;11.200;2024-02-21T10:37:26;98324.09;;;20.70;42.95
50057;BME280;36875;49.468;11.200;2024-02-21T10:39:54;98323.47;;;20.59;42.72
50057;BME280;36875;49.468;11.200;2024-02-21T10:42:21;98321.97;;;20.53;43.36
50057;BME280;36875;49.468;11.200;2024-02-21T10:44:50;98321.03;;;20.58;43.77
50057;BME280;36875;49.468;11.200;2024-02-21T10:47:16;98314.75;;;20.57;43.70
50057;BME280;36875;49.468;11.200;2024-02-21T10:49:50;98314.06;;;20.66;43.88
50057;BME280;36875;49.468;11.200;2024-02-21T10:52:29;98304.56;;;20.63;43.53
50057;BME280;36875;49.468;11.200;2024-02-21T10:55:03;98306.56;;;20.57;43.53
50057;BME280;36875;49.468;11.200;2024-02-21T10:57:31;98296.72;;;20.56;43.58
50057;BME280;36875;49.468;11.200;2024-02-21T10:59:58;98296.91;;;20.60;43.70
50057;BME280;36875;49.468;11.200;2024-02-21T11:02:24;98292.38;;;20.55;43.94
50057;BME280;36875;49.468;11.200;2024-02-21T11:04:52;98288.00;;;20.54;43.58
50057;BME280;36875;49.468;11.200;2024-02-21T11:07:19;98272.94;;;20.43;43.60
50057;BME280;36875;49.468;11.200;2024-02-21T11:09:51;98268.91;;;20.40;44.09
50057;BME280;36875;49.468;11.200;2024-02-21T11:12:21;98263.34;;;20.32;43.96
50057;BME280;36875;49.468;11.200;2024-02-21T11:14:47;98275.16;;;20.41;44.18
50057;BME280;36875;49.468;11.200;2024-02-21T11:17:15;98273.25;;;20.41;43.94
50057;BME280;36875;49.468;11.200;2024-02-21T11:19:42;98271.84;;;20.44;44.42
50057;BME280;36875;49.468;11.200;2024-02-21T11:22:14;98264.75;;;20.43;44.33
50057;BME280;36875;49.468;11.200;2024-02-21T11:24:39;98256.53;;;20.43;44.20
50057;BME280;36875;49.468;11.200;2024-02-21T11:27:08;98250.47;;;20.46;43.98
50057;BME280;36875;49.468;11.200;2024-02-21T11:29:39;98236.31;;;20.44;44.00
50057;BME280;36875;49.468;11.200;2024-02-21T11:32:06;98229.09;;;20.48;43.81
50057;BME280;36875;49.468;11.200;2024-02-21T11:34:34;98225.22;;;20.49;43.65
50057;BME280;36875;49.468;11.200;2024-02-21T11:36:59;98233.97;;;20.51;43.81
50057;BME280;36875;49.468;11.200;2024-02-21T11:39:25;98215.81;;;20.55;43.36
50057;BME280;36875;49.468;11.200;2024-02-21T11:42:00;98213.09;;;20.55;43.41
50057;BME280;36875;49.468;11.200;2024-02-21T11:44:26;98208.63;;;20.59;43.08
50057;BME280;36875;49.468;11.200;2024-02-21T11:46:53;98207.22;;;20.62;43.02
50057;BME280;36875;49.468;11.200;2024-02-21T11:49:18;98195.16;;;20.63;43.07
50057;BME280;36875;49.468;11.200;2024-02-21T11:51:43;98197.91;;;20.63;42.91
50057;BME280;36875;49.468;11.200;2024-02-21T11:54:08;98192.63;;;20.67;42.78
50057;BME280;36875;49.468;11.200;2024-02-21T11:56:36;98183.13;;;20.64;42.81
50057;BME280;36875;49.468;11.200;2024-02-21T11:59:01;98182.00;;;20.65;42.79
50057;BME280;36875;49.468;11.200;2024-02-21T12:01:27;98174.94;;;20.64;42.97
50057;BME280;36875;49.468;11.200;2024-02-21T12:03:54;98170.56;;;20.63;42.57
50057;BME280;36875;49.468;11.200;2024-02-21T12:06:20;98175.00;;;20.59;42.82
50057;BME280;36875;49.468;11.200;2024-02-21T12:08:47;98157.28;;;20.56;42.84
50057;BME280;36875;49.468;11.200;2024-02-21T12:11:16;98154.53;;;20.56;43.02
50057;BME280;36875;49.468;11.200;2024-02-21T12:13:41;98145.84;;;20.54;43.04
50057;BME280;36875;49.468;11.200;2024-02-21T12:16:07;98145.47;;;20.61;43.02
50057;BME280;36875;49.468;11.200;2024-02-21T12:18:33;98140.78;;;20.62;42.82
50057;BME280;36875;49.468;11.200;2024-02-21T12:20:59;98142.41;;;20.63;42.94
50057;BME280;36875;49.468;11.200;2024-02-21T12:23:26;98137.84;;;20.58;42.97
50057;BME280;36875;49.468;11.200;2024-02-21T12:25:51;98130.75;;;20.57;43.01
50057;BME280;36875;49.468;11.200;2024-02-21T12:28:19;98132.06;;;20.59;42.76
50057;BME280;36875;49.468;11.200;2024-02-21T12:30:44;98123.34;;;20.57;43.01
50057;BME280;36875;49.468;11.200;2024-02-21T12:33:10;98120.13;;;20.55;42.75
50057;BME280;36875;49.468;11.200;2024-02-21T12:35:35;98117.09;;;20.57;42.92
50057;BME280;36875;49.468;11.200;2024-02-21T12:38:02;98119.63;;;20.53;43.02
50057;BME280;36875;49.468;11.200;2024-02-21T12:40:27;98108.41;;;20.55;43.14
50057;BME280;36875;49.468;11.200;2024-02-21T12:42:57;98106.75;;;20.54;42.91
50057;BME280;36875;49.468;11.200;2024-02-21T12:45:23;98099.06;;;20.56;43.13